Terminal Aerodrome Forecast
Issued by NWS

Home | Current Version | Previous Version | Text Only | Print | Product List | Glossary On
Versions: 1 2 3 4 5 6 7 8 9 10 11 12 13 14 15 16
000
FTUS45 KFGZ 230822 AAA
TAFGCN
TAF AMD
KGCN 230822Z 2308/2406 VRB05KT P6SM SCT040 OVC150
     FM231300 VRB04KT 6SM -SHRA BR SCT020 BKN030
     FM231800 22012G18KT P6SM SCT030 BKN040
      TEMPO 2320/2324 VRB15G25KT 5SM -TSRA OVC030CB
     FM240300 VRB05KT P6SM OVC050=

USA.gov is the U.S. government's official web portal to all federal, state and local government web resources and services.